createdAt,value
2022-09-15T00:00:27.481Z,104
2022-09-15T00:00:50.114Z,79
2022-09-15T00:01:12.501Z,44
2022-09-15T00:01:49.377Z,63
2022-09-15T00:02:19.467Z,89
2022-09-15T00:02:51.618Z,63
2022-09-15T00:03:24.207Z,42
2022-09-15T00:03:55.345Z,71
2022-09-15T00:04:27.732Z,66
2022-09-15T00:04:50.435Z,63
2022-09-15T00:05:12.742Z,61
2022-09-15T00:05:49.867Z,76
2022-09-15T00:06:19.895Z,64
2022-09-15T00:06:52.225Z,47
2022-09-15T00:07:23.384Z,53
2022-09-15T00:07:55.501Z,74
2022-09-15T00:08:27.228Z,69
2022-09-15T00:08:50.868Z,68
2022-09-15T00:09:12.347Z,68
2022-09-15T00:09:50.492Z,81
2022-09-15T00:10:19.707Z,64
2022-09-15T00:10:51.529Z,71
2022-09-15T00:11:23.693Z,87
2022-09-15T00:11:55.590Z,76
2022-09-15T00:12:27.768Z,83
2022-09-15T00:12:51.139Z,79
2022-09-15T00:13:13.040Z,97
2022-09-15T00:13:47.748Z,107
2022-09-15T00:14:19.665Z,91
2022-09-15T00:14:51.890Z,140
2022-09-15T00:15:23.649Z,127
2022-09-15T00:15:55.466Z,119
2022-09-15T00:16:28.828Z,105
2022-09-15T00:16:51.614Z,122
2022-09-15T00:17:13.675Z,85
2022-09-15T00:17:47.502Z,97
2022-09-15T00:18:20.050Z,157
2022-09-15T00:18:52.043Z,104
2022-09-15T00:19:23.977Z,118
2022-09-15T00:19:56.261Z,106
2022-09-15T00:20:28.102Z,75
2022-09-15T00:20:52.759Z,58
2022-09-15T00:21:13.265Z,60
2022-09-15T00:21:48.232Z,72
2022-09-15T00:22:19.631Z,168
2022-09-15T00:22:52.338Z,132
2022-09-15T00:23:23.319Z,127
2022-09-15T00:23:55.234Z,164
2022-09-15T00:24:27.959Z,158
2022-09-15T00:24:52.724Z,129
2022-09-15T00:25:14.048Z,154
2022-09-15T00:25:47.434Z,110
2022-09-15T00:26:19.438Z,169
2022-09-15T00:26:53.702Z,147
2022-09-15T00:27:23.940Z,150
2022-09-15T00:27:55.764Z,113
2022-09-15T00:28:28.353Z,62
2022-09-15T00:28:53.289Z,138
2022-09-15T00:29:13.513Z,145
2022-09-15T00:29:47.403Z,186
2022-09-15T00:30:19.635Z,146
2022-09-15T00:30:53.659Z,113
2022-09-15T00:31:23.683Z,84
2022-09-15T00:31:55.498Z,83
2022-09-15T00:32:27.394Z,64
2022-09-15T00:32:50.202Z,70
2022-09-15T00:33:14.027Z,123
2022-09-15T00:33:47.251Z,83
2022-09-15T00:34:21.437Z,96
2022-09-15T00:34:54.216Z,100
2022-09-15T00:35:24.157Z,40
2022-09-15T00:35:55.206Z,142
2022-09-15T00:36:27.408Z,169
2022-09-15T00:36:50.156Z,207
2022-09-15T00:37:12.776Z,211
2022-09-15T00:37:47.643Z,152
2022-09-15T00:38:19.368Z,155
2022-09-15T00:38:51.701Z,142
2022-09-15T00:39:23.245Z,116
2022-09-15T00:39:56.088Z,114
2022-09-15T00:40:27.453Z,283
2022-09-15T00:40:50.079Z,269
2022-09-15T00:41:13.100Z,186
2022-09-15T00:41:48.265Z,183
2022-09-15T00:42:19.953Z,201
2022-09-15T00:42:51.513Z,136
2022-09-15T00:43:25.066Z,330
2022-09-15T00:43:55.426Z,356
2022-09-15T00:44:27.451Z,30
2022-09-15T00:44:50.133Z,101
2022-09-15T00:45:12.750Z,356
2022-09-15T00:45:49.649Z,27
2022-09-15T00:46:19.406Z,27
2022-09-15T00:47:09.411Z,27
2022-09-15T00:47:24.061Z,25
2022-09-15T00:47:56.065Z,27
2022-09-15T00:48:27.553Z,27
2022-09-15T00:48:50.138Z,27
2022-09-15T00:49:13.403Z,154
2022-09-15T00:49:47.358Z,66
2022-09-15T00:50:20.426Z,112
2022-09-15T00:50:51.739Z,74
2022-09-15T00:51:23.930Z,39
2022-09-15T00:51:56.713Z,44
2022-09-15T00:52:27.338Z,69
2022-09-15T00:52:51.527Z,81
2022-09-15T00:53:12.761Z,131
2022-09-15T00:53:48.035Z,81
2022-09-15T00:54:19.202Z,54
2022-09-15T00:54:51.621Z,53
2022-09-15T00:55:23.611Z,44
2022-09-15T00:55:57.134Z,28
2022-09-15T00:56:27.524Z,91
2022-09-15T00:56:50.295Z,124
2022-09-15T00:57:12.856Z,93
2022-09-15T00:57:47.281Z,25
2022-09-15T00:58:20.014Z,109
2022-09-15T00:58:51.704Z,65
2022-09-15T00:59:23.831Z,58
2022-09-15T00:59:57.731Z,65
2022-09-15T01:00:27.422Z,119
2022-09-15T01:00:50.139Z,87
2022-09-15T01:01:12.939Z,81
2022-09-15T01:01:47.933Z,150
2022-09-15T01:02:19.753Z,151
2022-09-15T01:02:51.425Z,114
2022-09-15T01:03:23.933Z,58
2022-09-15T01:03:58.390Z,60
2022-09-15T01:04:27.350Z,117
2022-09-15T01:04:51.258Z,98
2022-09-15T01:05:12.903Z,105
2022-09-15T01:05:47.770Z,132
2022-09-15T01:06:19.573Z,82
2022-09-15T01:06:51.485Z,173
2022-09-15T01:07:23.339Z,140
2022-09-15T01:07:55.329Z,109
2022-09-15T01:08:27.478Z,67
2022-09-15T01:08:50.798Z,52
2022-09-15T01:09:13.847Z,49
2022-09-15T01:09:47.553Z,117
2022-09-15T01:10:19.320Z,110
2022-09-15T01:10:52.582Z,156
2022-09-15T01:11:23.334Z,125
2022-09-15T01:11:55.720Z,75
2022-09-15T01:12:27.432Z,159
2022-09-15T01:12:50.093Z,185
2022-09-15T01:13:13.618Z,165
2022-09-15T01:13:52.911Z,163
2022-09-15T01:14:19.423Z,166
2022-09-15T01:14:52.290Z,151
2022-09-15T01:15:25.238Z,163
2022-09-15T01:15:56.139Z,175
2022-09-15T01:16:29.951Z,185
2022-09-15T01:16:52.544Z,168
2022-09-15T01:17:14.492Z,167
2022-09-15T01:17:48.302Z,131
2022-09-15T01:18:19.276Z,118
2022-09-15T01:18:51.857Z,133
2022-09-15T01:19:23.458Z,132
2022-09-15T01:19:56.059Z,118
2022-09-15T01:20:27.764Z,133
2022-09-15T01:20:50.418Z,111
2022-09-15T01:21:12.996Z,124
2022-09-15T01:21:47.941Z,109
2022-09-15T01:22:19.918Z,101
2022-09-15T01:22:51.590Z,134
2022-09-15T01:23:23.391Z,98
2022-09-15T01:23:55.315Z,156
2022-09-15T01:24:27.693Z,147
2022-09-15T01:24:50.319Z,142
2022-09-15T01:25:12.697Z,117
2022-09-15T01:25:47.324Z,102
2022-09-15T01:26:19.357Z,165
2022-09-15T01:26:51.760Z,113
2022-09-15T01:27:40.947Z,19
2022-09-15T01:27:55.698Z,113
2022-09-15T01:28:27.189Z,119
2022-09-15T01:28:50.015Z,75
2022-09-15T01:29:13.809Z,115
2022-09-15T01:29:47.433Z,125
2022-09-15T01:30:19.559Z,133
2022-09-15T01:30:51.500Z,173
2022-09-15T01:31:23.582Z,103
2022-09-15T01:31:55.795Z,45
2022-09-15T01:32:27.426Z,100
2022-09-15T01:32:50.043Z,198
2022-09-15T01:33:12.402Z,168
2022-09-15T01:33:47.344Z,190
2022-09-15T01:34:19.789Z,153
2022-09-15T01:34:52.073Z,162
2022-09-15T01:35:23.901Z,184
2022-09-15T01:35:55.505Z,170
2022-09-15T01:36:27.319Z,168
2022-09-15T01:36:50.506Z,143
2022-09-15T01:37:13.077Z,162
2022-09-15T01:37:47.481Z,145
2022-09-15T01:38:19.880Z,152
2022-09-15T01:38:51.535Z,114
2022-09-15T01:39:23.331Z,142
2022-09-15T01:39:55.286Z,155
2022-09-15T01:40:28.144Z,139
2022-09-15T01:40:50.847Z,164
2022-09-15T01:41:13.159Z,184
2022-09-15T01:41:47.526Z,147
2022-09-15T01:42:19.797Z,138
2022-09-15T01:42:52.015Z,132
2022-09-15T01:43:23.610Z,162
2022-09-15T01:43:55.488Z,133
2022-09-15T01:44:27.167Z,156
2022-09-15T01:44:49.898Z,142
2022-09-15T01:45:12.804Z,160
2022-09-15T01:45:47.759Z,155
2022-09-15T01:46:19.528Z,171
2022-09-15T01:46:51.440Z,160
2022-09-15T01:47:23.943Z,176
2022-09-15T01:47:56.509Z,207
2022-09-15T01:48:28.811Z,247
2022-09-15T01:48:51.607Z,195
2022-09-15T01:49:15.031Z,161
2022-09-15T01:49:47.246Z,141
2022-09-15T01:50:19.612Z,123
2022-09-15T01:50:52.587Z,99
2022-09-15T01:51:23.277Z,77
2022-09-15T01:51:55.754Z,63
2022-09-15T01:52:27.305Z,49
2022-09-15T01:52:51.502Z,54
2022-09-15T01:53:12.937Z,201
2022-09-15T01:53:47.601Z,78
2022-09-15T01:54:19.249Z,77
2022-09-15T01:54:52.744Z,77
2022-09-15T01:55:23.343Z,76
2022-09-15T01:55:56.320Z,76
2022-09-15T01:56:28.203Z,81
2022-09-15T01:56:51.268Z,67
2022-09-15T01:57:13.452Z,69
2022-09-15T01:57:48.019Z,347
2022-09-15T01:58:19.350Z,324
2022-09-15T01:58:51.425Z,324
2022-09-15T01:59:23.187Z,7
2022-09-15T01:59:55.314Z,9
2022-09-15T02:00:27.492Z,17
2022-09-15T02:00:50.176Z,18
2022-09-15T02:01:13.137Z,21
2022-09-15T02:01:47.518Z,21
2022-09-15T02:02:19.756Z,21
2022-09-15T02:02:51.407Z,21
2022-09-15T02:03:23.707Z,21
2022-09-15T02:03:55.656Z,21
2022-09-15T02:04:28.091Z,22
2022-09-15T02:04:50.727Z,23
2022-09-15T02:05:13.063Z,23
2022-09-15T02:05:47.538Z,27
2022-09-15T02:06:19.455Z,28
2022-09-15T02:06:51.436Z,28
2022-09-15T02:07:25.367Z,28
2022-09-15T02:07:55.624Z,28
2022-09-15T02:08:27.256Z,28
2022-09-15T02:08:49.880Z,28
2022-09-15T02:09:12.421Z,28
2022-09-15T02:09:47.576Z,28
2022-09-15T02:10:20.463Z,28
2022-09-15T02:10:51.628Z,28
2022-09-15T02:11:23.327Z,28
2022-09-15T02:11:57.272Z,32
2022-09-15T02:12:27.628Z,43
2022-09-15T02:12:50.541Z,43
2022-09-15T02:13:12.892Z,43
2022-09-15T02:13:47.585Z,43
2022-09-15T02:14:19.369Z,43
2022-09-15T02:14:52.952Z,43
2022-09-15T02:15:25.768Z,43
2022-09-15T02:15:56.042Z,43
2022-09-15T02:16:28.090Z,44
2022-09-15T02:16:50.910Z,44
2022-09-15T02:17:14.069Z,44
2022-09-15T02:17:47.305Z,44
2022-09-15T02:18:19.207Z,44
2022-09-15T02:18:51.229Z,44
2022-09-15T02:19:24.332Z,44
2022-09-15T02:19:55.239Z,44
2022-09-15T02:20:28.085Z,45
2022-09-15T02:20:50.597Z,47
2022-09-15T02:21:13.670Z,51
2022-09-15T02:21:47.437Z,53
2022-09-15T02:22:19.183Z,47
2022-09-15T02:22:52.137Z,47
2022-09-15T02:23:23.261Z,51
2022-09-15T02:23:56.424Z,43
2022-09-15T02:24:27.394Z,48
2022-09-15T02:24:49.960Z,50
2022-09-15T02:25:12.496Z,49
2022-09-15T02:25:47.372Z,39
2022-09-15T02:26:19.262Z,70
2022-09-15T02:26:51.535Z,42
2022-09-15T02:27:24.311Z,66
2022-09-15T02:27:55.547Z,71
2022-09-15T02:28:29.774Z,70
2022-09-15T02:28:50.022Z,60
2022-09-15T02:29:12.873Z,89
2022-09-15T02:29:47.848Z,94
2022-09-15T02:30:19.295Z,92
2022-09-15T02:30:52.832Z,82
2022-09-15T02:31:23.283Z,79
2022-09-15T02:31:55.507Z,73
2022-09-15T02:32:27.111Z,62
2022-09-15T02:32:49.965Z,52
2022-09-15T02:33:12.361Z,80
2022-09-15T02:33:47.538Z,98
2022-09-15T02:34:21.186Z,83
2022-09-15T02:34:51.653Z,101
2022-09-15T02:35:23.355Z,90
2022-09-15T02:35:55.745Z,85
2022-09-15T02:36:28.382Z,101
2022-09-15T02:36:51.132Z,78
2022-09-15T02:37:13.444Z,69
2022-09-15T02:37:47.196Z,101
2022-09-15T02:38:19.180Z,66
2022-09-15T02:38:52.081Z,82
2022-09-15T02:39:23.621Z,139
2022-09-15T02:39:55.992Z,109
2022-09-15T02:40:27.513Z,136
2022-09-15T02:40:50.021Z,96
2022-09-15T02:41:12.594Z,111
2022-09-15T02:41:47.086Z,132
2022-09-15T02:42:19.315Z,68
2022-09-15T02:42:51.364Z,159
2022-09-15T02:43:23.563Z,151
2022-09-15T02:43:55.385Z,182
2022-09-15T02:44:27.311Z,164
2022-09-15T02:44:50.068Z,168
2022-09-15T02:45:12.738Z,168
2022-09-15T02:45:48.271Z,174
2022-09-15T02:46:19.217Z,139
2022-09-15T02:46:51.767Z,146
2022-09-15T02:47:23.311Z,175
2022-09-15T02:47:55.677Z,156
2022-09-15T02:48:27.482Z,217
2022-09-15T02:48:50.165Z,185
2022-09-15T02:49:13.748Z,153
2022-09-15T02:49:48.808Z,171
2022-09-15T02:50:20.409Z,163
2022-09-15T02:50:51.315Z,141
2022-09-15T02:51:23.307Z,155
2022-09-15T02:51:55.229Z,159
2022-09-15T02:52:27.569Z,155
2022-09-15T02:52:50.559Z,141
2022-09-15T02:53:13.942Z,244
2022-09-15T02:53:48.252Z,164
2022-09-15T02:54:19.358Z,103
2022-09-15T02:54:52.659Z,192
2022-09-15T02:55:23.197Z,173
2022-09-15T02:55:55.574Z,164
2022-09-15T02:56:27.557Z,172
2022-09-15T02:56:50.262Z,263
2022-09-15T02:57:14.874Z,131
2022-09-15T02:57:47.142Z,126
2022-09-15T02:58:19.340Z,143
2022-09-15T02:58:51.488Z,160
2022-09-15T02:59:23.403Z,167
2022-09-15T02:59:55.177Z,173
2022-09-15T03:00:27.374Z,151
2022-09-15T03:00:50.055Z,167
2022-09-15T03:01:15.081Z,145
2022-09-15T03:01:47.988Z,151
2022-09-15T03:02:19.338Z,148
2022-09-15T03:02:51.395Z,104
2022-09-15T03:03:23.226Z,127
2022-09-15T03:03:55.732Z,137
2022-09-15T03:04:27.221Z,110
2022-09-15T03:04:49.918Z,102
2022-09-15T03:05:15.362Z,101
2022-09-15T03:05:47.180Z,126
2022-09-15T03:06:19.491Z,129
2022-09-15T03:06:51.767Z,121
2022-09-15T03:07:25.217Z,124
2022-09-15T03:07:55.633Z,112
2022-09-15T03:08:27.634Z,125
2022-09-15T03:08:50.534Z,99
2022-09-15T03:09:12.725Z,124
2022-09-15T03:09:48.352Z,196
2022-09-15T03:10:19.733Z,175
2022-09-15T03:10:51.506Z,173
2022-09-15T03:11:23.208Z,185
2022-09-15T03:11:56.485Z,156
2022-09-15T03:12:27.468Z,127
2022-09-15T03:12:50.224Z,130
2022-09-15T03:13:12.655Z,137
2022-09-15T03:13:47.521Z,137
2022-09-15T03:14:19.372Z,219
2022-09-15T03:14:51.414Z,161
2022-09-15T03:15:23.857Z,150
2022-09-15T03:15:55.521Z,155
2022-09-15T03:16:27.529Z,129
2022-09-15T03:16:50.218Z,128
2022-09-15T03:17:12.697Z,133
2022-09-15T03:17:47.979Z,52
2022-09-15T03:18:20.032Z,7
2022-09-15T03:18:51.878Z,347
2022-09-15T03:19:23.329Z,351
2022-09-15T03:19:55.357Z,228
2022-09-15T03:20:27.200Z,128
2022-09-15T03:20:49.964Z,149
2022-09-15T03:21:12.661Z,120
2022-09-15T03:21:47.508Z,74
2022-09-15T03:22:19.397Z,74
2022-09-15T03:22:51.545Z,99
2022-09-15T03:23:23.222Z,53
2022-09-15T03:23:56.076Z,63
2022-09-15T03:24:27.693Z,23
2022-09-15T03:24:50.329Z,27
2022-09-15T03:25:13.830Z,329
2022-09-15T03:25:47.596Z,17
2022-09-15T03:26:19.169Z,17
2022-09-15T03:26:51.386Z,29
2022-09-15T03:27:23.675Z,187
2022-09-15T03:27:55.496Z,166
2022-09-15T03:28:27.336Z,167
2022-09-15T03:28:49.974Z,139
2022-09-15T03:29:12.423Z,157
2022-09-15T03:29:47.597Z,121
2022-09-15T03:30:20.276Z,189
2022-09-15T03:30:51.338Z,140
2022-09-15T03:31:23.279Z,165
2022-09-15T03:31:55.367Z,148
2022-09-15T03:32:28.365Z,164
2022-09-15T03:32:51.096Z,149
2022-09-15T03:33:13.368Z,118
2022-09-15T03:33:47.345Z,94
2022-09-15T03:34:20.510Z,148
2022-09-15T03:34:55.259Z,124
2022-09-15T03:35:23.178Z,156
2022-09-15T03:35:55.604Z,136
2022-09-15T03:36:27.235Z,131
2022-09-15T03:36:50.064Z,117
2022-09-15T03:37:12.412Z,88
2022-09-15T03:37:48.443Z,130
2022-09-15T03:38:20.999Z,79
2022-09-15T03:38:51.667Z,72
2022-09-15T03:39:23.476Z,94
2022-09-15T03:39:55.283Z,69
2022-09-15T03:40:28.353Z,74
2022-09-15T03:40:51.222Z,71
2022-09-15T03:41:13.390Z,97
2022-09-15T03:41:48.141Z,53
2022-09-15T03:42:21.607Z,34
2022-09-15T03:42:51.893Z,347
2022-09-15T03:43:23.272Z,310
2022-09-15T03:43:55.582Z,259
2022-09-15T03:44:27.177Z,231
2022-09-15T03:44:49.765Z,246
2022-09-15T03:45:12.925Z,3
2022-09-15T03:45:47.329Z,12
2022-09-15T03:46:23.307Z,41
2022-09-15T03:46:51.843Z,41
2022-09-15T03:47:23.481Z,47
2022-09-15T03:47:56.025Z,33
2022-09-15T03:48:27.481Z,281
2022-09-15T03:48:50.140Z,254
2022-09-15T03:49:12.819Z,237
2022-09-15T03:49:47.954Z,84
2022-09-15T03:50:19.444Z,245
2022-09-15T03:50:52.145Z,187
2022-09-15T03:51:23.118Z,241
2022-09-15T03:51:55.495Z,243
2022-09-15T03:52:27.477Z,243
2022-09-15T03:52:50.395Z,256
2022-09-15T03:53:13.204Z,256
2022-09-15T03:53:47.268Z,257
2022-09-15T03:54:19.337Z,267
2022-09-15T03:54:51.203Z,205
2022-09-15T03:55:23.891Z,253
2022-09-15T03:55:55.158Z,233
2022-09-15T03:56:27.236Z,260
2022-09-15T03:56:49.959Z,239
2022-09-15T03:57:12.403Z,275
2022-09-15T03:57:48.265Z,245
2022-09-15T03:58:19.466Z,249
2022-09-15T03:58:51.345Z,242
2022-09-15T03:59:24.579Z,241
2022-09-15T03:59:56.545Z,265
2022-09-15T04:00:27.274Z,239
2022-09-15T04:00:49.824Z,219
2022-09-15T04:01:12.206Z,224
2022-09-15T04:01:47.377Z,252
2022-09-15T04:02:19.315Z,249
2022-09-15T04:02:51.446Z,215
2022-09-15T04:03:24.531Z,258
2022-09-15T04:03:55.649Z,274
2022-09-15T04:04:27.916Z,254
2022-09-15T04:04:50.643Z,253
2022-09-15T04:05:13.577Z,260
2022-09-15T04:05:47.989Z,54
2022-09-15T04:06:19.222Z,63
2022-09-15T04:06:51.566Z,38
2022-09-15T04:07:25.035Z,245
2022-09-15T04:07:55.684Z,255
2022-09-15T04:08:27.119Z,248
2022-09-15T04:08:49.719Z,285
2022-09-15T04:09:12.169Z,298
2022-09-15T04:09:47.424Z,339
2022-09-15T04:10:19.157Z,262
2022-09-15T04:10:51.263Z,322
2022-09-15T04:11:26.180Z,289
2022-09-15T04:11:55.359Z,337
2022-09-15T04:12:28.730Z,349
2022-09-15T04:12:51.476Z,347
2022-09-15T04:13:13.668Z,25
2022-09-15T04:13:47.104Z,251
2022-09-15T04:14:19.613Z,327
2022-09-15T04:14:51.282Z,301
2022-09-15T04:15:23.272Z,281
2022-09-15T04:15:55.044Z,244
2022-09-15T04:16:27.331Z,218
2022-09-15T04:16:49.908Z,146
2022-09-15T04:17:12.262Z,62
2022-09-15T04:17:47.516Z,24
2022-09-15T04:18:18.982Z,13
2022-09-15T04:18:51.261Z,219
2022-09-15T04:19:23.178Z,101
2022-09-15T04:19:55.032Z,328
2022-09-15T04:20:27.406Z,335
2022-09-15T04:20:51.208Z,253
2022-09-15T04:21:13.930Z,188
2022-09-15T04:21:47.179Z,251
2022-09-15T04:22:18.992Z,240
2022-09-15T04:22:51.210Z,237
2022-09-15T04:23:23.290Z,250
2022-09-15T04:23:55.140Z,245
2022-09-15T04:24:27.557Z,226
2022-09-15T04:24:50.116Z,253
2022-09-15T04:25:12.698Z,225
2022-09-15T04:25:47.434Z,256
2022-09-15T04:26:19.107Z,202
2022-09-15T04:26:51.230Z,248
2022-09-15T04:27:23.162Z,225
2022-09-15T04:27:55.113Z,239
2022-09-15T04:28:28.528Z,243
2022-09-15T04:28:50.362Z,251
2022-09-15T04:29:12.602Z,253
2022-09-15T04:29:47.076Z,233
2022-09-15T04:30:19.246Z,240
2022-09-15T04:30:51.209Z,221
2022-09-15T04:31:23.594Z,231
2022-09-15T04:31:55.071Z,151
2022-09-15T04:32:29.102Z,252
2022-09-15T04:32:49.951Z,243
2022-09-15T04:33:12.209Z,260
2022-09-15T04:33:47.036Z,231
2022-09-15T04:34:20.726Z,235
2022-09-15T04:34:51.045Z,251
2022-09-15T04:35:23.044Z,285
2022-09-15T04:35:55.176Z,259
2022-09-15T04:36:29.348Z,240
2022-09-15T04:36:50.681Z,289
2022-09-15T04:37:12.904Z,324
2022-09-15T04:37:47.166Z,347
2022-09-15T04:38:19.212Z,328
2022-09-15T04:38:51.263Z,273
2022-09-15T04:39:23.437Z,248
2022-09-15T04:39:55.236Z,235
2022-09-15T04:40:29.673Z,232
2022-09-15T04:40:50.031Z,240
2022-09-15T04:41:12.331Z,249
2022-09-15T04:41:47.004Z,247
2022-09-15T04:42:19.138Z,225
2022-09-15T04:42:51.350Z,236
2022-09-15T04:43:23.001Z,233
2022-09-15T04:43:55.073Z,238
2022-09-15T04:44:27.216Z,243
2022-09-15T04:44:50.220Z,254
2022-09-15T04:45:12.566Z,230
2022-09-15T04:45:47.172Z,247
2022-09-15T04:46:19.174Z,235
2022-09-15T04:46:51.190Z,257
2022-09-15T04:47:23.222Z,256
2022-09-15T04:47:55.275Z,253
2022-09-15T04:48:27.423Z,242
2022-09-15T04:48:50.455Z,237
2022-09-15T04:49:12.555Z,307
2022-09-15T04:49:47.134Z,232
2022-09-15T04:50:19.002Z,227
2022-09-15T04:50:51.149Z,236
2022-09-15T04:51:23.301Z,274
2022-09-15T04:51:55.098Z,209
2022-09-15T04:52:27.388Z,241
2022-09-15T04:52:50.296Z,241
2022-09-15T04:53:12.644Z,264
2022-09-15T04:53:47.388Z,273
2022-09-15T04:54:19.129Z,222
2022-09-15T04:54:51.330Z,230
2022-09-15T04:55:23.033Z,217
2022-09-15T04:55:55.085Z,245
2022-09-15T04:56:27.096Z,246
2022-09-15T04:56:50.233Z,231
2022-09-15T04:57:12.549Z,236
2022-09-15T04:57:47.141Z,255
2022-09-15T04:58:19.089Z,273
2022-09-15T04:58:51.217Z,225
2022-09-15T04:59:23.146Z,221
2022-09-15T04:59:55.284Z,238
2022-09-15T05:00:27.184Z,245
2022-09-15T05:00:50.233Z,252
2022-09-15T05:01:12.794Z,236
2022-09-15T05:01:47.459Z,264
2022-09-15T05:02:19.275Z,232
2022-09-15T05:02:51.168Z,239
2022-09-15T05:03:23.485Z,256
2022-09-15T05:03:55.011Z,248
2022-09-15T05:04:27.292Z,164
2022-09-15T05:04:49.952Z,237
2022-09-15T05:05:12.144Z,244
2022-09-15T05:05:47.251Z,277
2022-09-15T05:06:19.163Z,234
2022-09-15T05:06:51.296Z,238
2022-09-15T05:07:23.249Z,268
2022-09-15T05:07:55.259Z,255
2022-09-15T05:08:27.148Z,243
2022-09-15T05:08:49.920Z,238
2022-09-15T05:09:12.471Z,238
2022-09-15T05:09:47.198Z,248
2022-09-15T05:10:19.051Z,225
2022-09-15T05:10:51.183Z,240
2022-09-15T05:11:23.043Z,233
2022-09-15T05:11:55.758Z,231
2022-09-15T05:12:27.188Z,239
2022-09-15T05:12:49.676Z,274
2022-09-15T05:13:12.256Z,238
2022-09-15T05:13:47.478Z,234
2022-09-15T05:14:19.211Z,255
2022-09-15T05:14:51.481Z,242
2022-09-15T05:15:23.192Z,253
2022-09-15T05:15:55.235Z,240
2022-09-15T05:16:27.355Z,233
2022-09-15T05:16:50.770Z,225
2022-09-15T05:17:12.737Z,223
2022-09-15T05:17:47.242Z,246
2022-09-15T05:18:19.230Z,248
2022-09-15T05:18:51.251Z,229
2022-09-15T05:19:23.531Z,238
2022-09-15T05:19:55.052Z,221
2022-09-15T05:20:27.223Z,236
2022-09-15T05:20:50.241Z,258
2022-09-15T05:21:12.585Z,244
2022-09-15T05:21:47.024Z,247
2022-09-15T05:22:19.165Z,253
2022-09-15T05:22:51.546Z,236
2022-09-15T05:23:23.133Z,206
2022-09-15T05:23:55.197Z,229
2022-09-15T05:24:27.200Z,246
2022-09-15T05:24:49.663Z,241
2022-09-15T05:25:11.975Z,238
2022-09-15T05:25:47.222Z,228
2022-09-15T05:26:19.049Z,219
2022-09-15T05:26:51.240Z,247
2022-09-15T05:27:23.283Z,239
2022-09-15T05:27:55.198Z,302
2022-09-15T05:28:21.059Z,259
2022-09-15T05:28:55.285Z,270
2022-09-15T05:29:31.818Z,292
2022-09-15T05:30:16.139Z,314
2022-09-15T05:30:41.453Z,315
2022-09-15T05:30:58.177Z,3
2022-09-15T05:31:20.649Z,355
2022-09-15T05:31:55.588Z,358
2022-09-15T05:32:27.239Z,324
2022-09-15T05:32:49.839Z,349
2022-09-15T05:33:12.604Z,341
2022-09-15T05:33:47.345Z,264
2022-09-15T05:34:25.734Z,253
2022-09-15T05:34:51.511Z,274
2022-09-15T05:35:23.398Z,301
2022-09-15T05:35:55.599Z,267
2022-09-15T05:36:27.461Z,308
2022-09-15T05:36:50.289Z,273
2022-09-15T05:37:12.678Z,245
2022-09-15T05:37:47.725Z,246
2022-09-15T05:38:19.187Z,254
2022-09-15T05:38:52.503Z,252
2022-09-15T05:39:24.840Z,242
2022-09-15T05:39:55.336Z,235
2022-09-15T05:40:27.399Z,235
2022-09-15T05:40:49.867Z,270
2022-09-15T05:41:12.418Z,236
2022-09-15T05:41:47.346Z,244
2022-09-15T05:42:19.906Z,238
2022-09-15T05:42:51.758Z,236
2022-09-15T05:43:23.188Z,239
2022-09-15T05:43:55.149Z,246
2022-09-15T05:44:27.298Z,256
2022-09-15T05:44:50.233Z,246
2022-09-15T05:45:12.528Z,235
2022-09-15T05:45:47.560Z,236
2022-09-15T05:46:19.301Z,240
2022-09-15T05:46:51.479Z,250
2022-09-15T05:47:23.044Z,230
2022-09-15T05:47:55.694Z,226
2022-09-15T05:48:27.721Z,225
2022-09-15T05:48:50.350Z,252
2022-09-15T05:49:13.595Z,242
2022-09-15T05:49:47.183Z,240
2022-09-15T05:50:19.805Z,245
2022-09-15T05:50:51.715Z,249
2022-09-15T05:51:24.266Z,259
2022-09-15T05:51:55.137Z,251
2022-09-15T05:52:27.165Z,231
2022-09-15T05:52:49.976Z,232
2022-09-15T05:53:12.945Z,260
2022-09-15T05:53:47.227Z,257
2022-09-15T05:54:19.222Z,218
2022-09-15T05:54:54.642Z,250
2022-09-15T05:55:23.327Z,275
2022-09-15T05:55:55.260Z,223
2022-09-15T05:56:27.752Z,248
2022-09-15T05:56:50.501Z,242
2022-09-15T05:57:12.846Z,277
2022-09-15T05:57:47.369Z,229
2022-09-15T05:58:19.656Z,238
2022-09-15T05:58:51.286Z,218
2022-09-15T05:59:23.127Z,250
2022-09-15T05:59:56.775Z,237
2022-09-15T06:00:27.206Z,241
2022-09-15T06:00:49.748Z,244
2022-09-15T06:01:12.246Z,244
2022-09-15T06:01:48.147Z,259
2022-09-15T06:02:19.147Z,232
2022-09-15T06:02:51.205Z,236
2022-09-15T06:03:26.322Z,210
2022-09-15T06:03:55.324Z,243
2022-09-15T06:04:27.705Z,263
2022-09-15T06:04:50.434Z,270
2022-09-15T06:05:13.196Z,235
2022-09-15T06:05:47.115Z,258
2022-09-15T06:06:19.327Z,17
2022-09-15T06:06:51.462Z,222
2022-09-15T06:07:23.593Z,263
2022-09-15T06:10:19.737Z,225
2022-09-15T06:10:51.190Z,244
2022-09-15T06:11:23.143Z,236
2022-09-15T06:11:55.528Z,251
2022-09-15T06:12:27.119Z,266
2022-09-15T06:12:49.722Z,237
2022-09-15T06:13:12.271Z,249
2022-09-15T06:13:47.217Z,214
2022-09-15T06:14:19.279Z,261
2022-09-15T06:14:52.934Z,297
2022-09-15T06:15:23.186Z,223
2022-09-15T06:15:52.182Z,272
2022-09-15T06:16:24.016Z,271
2022-09-15T06:16:55.300Z,232
2022-09-15T06:17:31.320Z,216
2022-09-15T06:17:54.022Z,281
2022-09-15T06:18:16.515Z,253
2022-09-15T06:18:51.365Z,231
2022-09-15T06:19:23.139Z,224
2022-09-15T06:19:55.090Z,239
2022-09-15T06:20:27.358Z,224
2022-09-15T06:20:49.793Z,238
2022-09-15T06:21:12.356Z,250
2022-09-15T06:21:47.193Z,232
2022-09-15T06:22:19.093Z,269
2022-09-15T06:22:51.477Z,232
2022-09-15T06:23:23.108Z,227
2022-09-15T06:23:55.224Z,1
2022-09-15T06:24:27.098Z,231
2022-09-15T06:24:49.817Z,294
2022-09-15T06:25:12.394Z,244
2022-09-15T06:25:47.931Z,240
2022-09-15T06:26:19.171Z,249
2022-09-15T06:26:51.359Z,244
2022-09-15T06:27:23.148Z,235
2022-09-15T06:27:55.085Z,265
2022-09-15T06:28:27.161Z,239
2022-09-15T06:28:50.087Z,234
2022-09-15T06:29:12.335Z,205
2022-09-15T06:29:48.585Z,273
2022-09-15T06:30:19.178Z,266
2022-09-15T06:30:51.283Z,239
2022-09-15T06:31:23.049Z,284
2022-09-15T06:31:55.217Z,223
2022-09-15T06:32:27.144Z,251
2022-09-15T06:32:49.822Z,242
2022-09-15T06:33:12.241Z,266
2022-09-15T06:33:49.485Z,230
2022-09-15T06:34:19.071Z,314
2022-09-15T06:34:51.357Z,273
2022-09-15T06:35:23.256Z,209
2022-09-15T06:35:55.130Z,220
2022-09-15T06:36:28.587Z,357
2022-09-15T06:36:51.302Z,284
2022-09-15T06:37:13.571Z,229
2022-09-15T06:37:49.927Z,224
2022-09-15T06:38:19.088Z,185
2022-09-15T06:38:51.195Z,215
2022-09-15T06:39:23.009Z,242
2022-09-15T06:39:55.330Z,236
2022-09-15T06:40:27.402Z,255
2022-09-15T06:40:50.532Z,244
2022-09-15T06:41:12.289Z,265
2022-09-15T06:42:01.693Z,246
2022-09-15T06:42:19.358Z,283
2022-09-15T06:42:51.058Z,232
2022-09-15T06:43:23.188Z,22
2022-09-15T06:43:55.379Z,242
2022-09-15T06:44:27.197Z,224
2022-09-15T06:44:51.291Z,239
2022-09-15T06:45:12.386Z,281
2022-09-15T06:45:47.383Z,242
2022-09-15T06:46:19.274Z,301
2022-09-15T06:46:51.629Z,266
2022-09-15T06:47:23.063Z,280
2022-09-15T06:48:20.353Z,307
2022-09-15T06:48:26.991Z,271
2022-09-15T06:48:51.967Z,291
2022-09-15T06:49:12.161Z,28
2022-09-15T06:49:47.145Z,87
2022-09-15T06:50:19.462Z,220
2022-09-15T06:50:52.251Z,246
2022-09-15T06:51:23.138Z,189
2022-09-15T06:51:55.075Z,218
2022-09-15T06:52:27.215Z,234
2022-09-15T06:52:52.657Z,294
2022-09-15T06:53:12.331Z,316
2022-09-15T06:53:47.383Z,224
2022-09-15T06:54:19.097Z,273
2022-09-15T06:54:52.806Z,210
2022-09-15T06:55:23.084Z,235
2022-09-15T06:55:55.208Z,240
2022-09-15T06:56:27.161Z,266
2022-09-15T06:56:52.922Z,231
2022-09-15T06:57:13.266Z,254
2022-09-15T06:57:47.059Z,260
2022-09-15T06:58:19.144Z,140
2022-09-15T06:58:53.880Z,230
2022-09-15T06:59:23.058Z,222